Terminal Aerodrome Forecast
Issued by NWS

Home | Current Version | Previous Version | Text Only | Print | Product List | Glossary On
Versions: 1 2 3 4 5 6 7 8 9 10 11 12 13 14 15 16 17 18 19 20 21 22 23 24 25 26
000
FTUS43 KABR 162300 CCA
TAFATY
TAF COR
KATY 162328Z 1700/1724 02018G26KT 3SM BR OVC010
     FM170900 02006KT 2SM BR SKC
     FM171600 09006KT P6SM SKC=

USA.gov is the U.S. government's official web portal to all federal, state and local government web resources and services.